Main page
METAR-TAF:

METAR-TAF

Airports :

Amman, Jordan

Amman Civil Airport

latitude: 31-59N, longitude: 035-59E, elevation: 767 m

Current weather observation

The report was made 50 minutes ago, at 11:00 UTC
Wind 11 kt from the Northwest
Temperature 29°C
Humidity 40%
Pressure 1013 hPa
Visibility: 5000 m
haze

METAR: OJAM 211100Z 32011KT 5000 HZ NSC 29/14 Q1013 NOSIG

Time: 14:50 (11:50 UTC)

Forecast

The report was made 1 hour and 10 minutes ago, at 10:40 UTC
Forecast valid from 21 at 12 UTC to 22 at 18 UTC
Wind 12 kt from the West/Northwest
Visibility: 5000 m
haze
Temporary
from 21 at 12 UTC to 21 at 18 UTC
Visibility: 4000 m

TAF: OJAM 211040Z 2112/2218 29012KT 5000 HZ NSC TEMPO 2112/2118 4000

Weather observations and forecasts of more than 4000 airports (METAR and TAF reports).

The available stations are represented by yellow and red dots on the map.

Hover mouse over dot to see the name of the station.

Then click to see weather observations and forecasts.

To change the map : click on the green buttons with a black cross to zoom in, on the green button with a dash to zoom out, or on the green arrows for adjacent maps.


METAR-TAF: